Time;durP1;ratioP1;P1;durP2;ratioP2;P2;SDS_P1;SDS_P2;PMS_P1;PMS_P2;Temp;Humidity;BMP_temperature;BMP_pressure;BME280_temperature;BME280_humidity;BME280_pressure;Samples;Min_cycle;Max_cycle;Signal;HPM_P1;HPM_P2
2023/07/25 00:00:00;;;;;;;21.90;8.15;;;29.70;96.70;;;;;;5066524;28;20052;-83
2023/07/25 00:02:31;;;;;;;22.10;7.97;;;29.70;96.70;;;;;;5067525;28;20370;-83
2023/07/25 00:04:59;;;;;;;22.85;8.40;;;29.70;96.70;;;;;;5068491;28;20131;-84
2023/07/25 00:07:27;;;;;;;21.45;8.15;;;29.70;96.70;;;;;;5050036;28;20044;-83
2023/07/25 00:09:56;;;;;;;15.68;7.40;;;29.70;96.70;;;;;;5066779;28;20053;-83
2023/07/25 00:12:25;;;;;;;17.05;8.15;;;29.70;96.70;;;;;;5067973;28;20147;-83
2023/07/25 00:14:53;;;;;;;19.42;8.18;;;29.70;96.70;;;;;;5067717;28;20044;-83
2023/07/25 00:17:23;;;;;;;16.88;6.88;;;29.60;96.70;;;;;;5066584;28;20544;-83
2023/07/25 00:19:51;;;;;;;18.98;9.10;;;29.60;96.70;;;;;;5067415;28;20048;-83
2023/07/25 00:22:19;;;;;;;24.25;8.38;;;29.60;96.70;;;;;;5066491;28;20071;-83
2023/07/25 00:24:48;;;;;;;16.48;7.68;;;29.60;96.70;;;;;;5065754;28;20044;-83
2023/07/25 00:27:16;;;;;;;18.08;7.28;;;29.60;96.70;;;;;;5065808;28;20040;-83
2023/07/25 00:29:44;;;;;;;18.45;7.32;;;29.60;96.70;;;;;;5066262;28;20048;-83
2023/07/25 00:32:12;;;;;;;18.88;7.82;;;29.60;96.70;;;;;;5067710;28;20071;-83
2023/07/25 00:34:42;;;;;;;18.35;7.80;;;29.60;96.70;;;;;;5065757;28;20052;-83
2023/07/25 00:37:10;;;;;;;15.88;7.43;;;29.60;96.70;;;;;;5057472;28;20133;-83
2023/07/25 00:39:38;;;;;;;17.95;7.60;;;29.60;96.70;;;;;;5066106;28;20057;-83
2023/07/25 00:42:06;;;;;;;18.83;7.22;;;29.50;96.70;;;;;;5065930;28;20521;-83
2023/07/25 00:44:35;;;;;;;21.10;7.85;;;29.40;96.70;;;;;;5049336;28;20083;-83
2023/07/25 00:47:03;;;;;;;19.08;7.80;;;29.40;96.70;;;;;;5049411;28;20111;-83
2023/07/25 00:49:31;;;;;;;24.83;7.68;;;29.10;96.70;;;;;;5057363;28;20044;-83
2023/07/25 00:52:01;;;;;;;25.17;8.10;;;29.10;96.70;;;;;;5065744;28;20072;-83
2023/07/25 00:54:29;;;;;;;29.05;9.10;;;29.10;96.70;;;;;;5067491;28;20698;-82
2023/07/25 00:56:58;;;;;;;21.58;8.18;;;29.20;96.70;;;;;;5065417;28;20059;-83
2023/07/25 00:59:26;;;;;;;18.85;8.45;;;29.10;96.70;;;;;;5049416;28;20079;-83
2023/07/25 01:01:54;;;;;;;20.77;8.20;;;29.10;96.70;;;;;;5049319;28;20488;-83
2023/07/25 01:04:23;;;;;;;19.25;7.75;;;29.00;96.70;;;;;;5066854;28;20078;-83
2023/07/25 01:06:52;;;;;;;20.35;8.00;;;28.90;96.70;;;;;;5048780;28;20044;-83
2023/07/25 01:09:36;;;;;;;18.23;8.18;;;28.90;96.70;;;;;;5064775;28;20049;-82
2023/07/25 01:12:06;;;;;;;15.27;7.00;;;28.90;96.70;;;;;;5048429;28;20048;-83
2023/07/25 01:14:35;;;;;;;18.70;7.28;;;28.90;96.70;;;;;;5066437;28;20049;-83
2023/07/25 01:17:08;;;;;;;22.60;7.85;;;28.90;96.70;;;;;;5045176;28;20583;-82
2023/07/25 01:19:39;;;;;;;18.20;7.40;;;28.90;96.70;;;;;;5065976;28;20059;-83
2023/07/25 01:22:09;;;;;;;19.30;7.50;;;28.90;96.70;;;;;;5052867;28;20072;-83
2023/07/25 01:24:43;;;;;;;20.17;7.95;;;29.00;96.70;;;;;;5069076;28;20122;-82
2023/07/25 01:27:13;;;;;;;19.20;7.63;;;28.90;96.70;;;;;;5060918;28;20045;-82
2023/07/25 01:29:41;;;;;;;23.80;8.07;;;28.90;96.70;;;;;;5050573;28;20383;-82
2023/07/25 01:32:10;;;;;;;19.05;7.15;;;28.80;96.70;;;;;;5043963;28;20137;-83
2023/07/25 01:34:39;;;;;;;18.70;7.57;;;28.80;96.70;;;;;;5069048;28;20094;-82
2023/07/25 01:37:07;;;;;;;22.77;8.27;;;28.80;96.70;;;;;;5070401;28;20486;-82
2023/07/25 01:39:37;;;;;;;23.02;7.53;;;28.80;96.70;;;;;;5052296;28;20052;-82
2023/07/25 01:42:05;;;;;;;25.05;7.57;;;28.80;96.70;;;;;;5068302;28;20048;-82
2023/07/25 01:44:33;;;;;;;25.63;7.28;;;28.80;96.70;;;;;;5068921;28;20075;-80
2023/07/25 01:47:01;;;;;;;23.40;6.97;;;28.90;96.70;;;;;;5068542;28;20097;-82
2023/07/25 01:49:29;;;;;;;21.63;7.07;;;28.90;96.70;;;;;;5064358;28;20056;-81
2023/07/25 01:51:58;;;;;;;27.92;8.00;;;28.90;96.70;;;;;;5060971;28;20139;-82
2023/07/25 01:54:26;;;;;;;27.13;7.60;;;28.90;96.70;;;;;;5067661;28;20044;-81
2023/07/25 01:56:55;;;;;;;25.38;7.00;;;28.90;96.70;;;;;;5084073;28;20048;-83
2023/07/25 01:59:26;;;;;;;25.15;8.07;;;28.80;96.70;;;;;;5069422;28;20060;-81
2023/07/25 02:01:55;;;;;;;21.42;6.75;;;28.80;96.70;;;;;;5068035;28;20082;-82
2023/07/25 02:04:23;;;;;;;17.92;6.43;;;28.80;96.70;;;;;;5069259;28;20041;-80
2023/07/25 02:06:51;;;;;;;21.73;6.85;;;28.70;96.70;;;;;;5084943;28;20048;-82
2023/07/25 02:09:19;;;;;;;23.35;6.85;;;28.60;96.70;;;;;;5069389;28;20102;-82
2023/07/25 02:11:47;;;;;;;27.00;6.25;;;28.70;96.70;;;;;;5067434;28;20048;-82
2023/07/25 02:14:17;;;;;;;22.95;6.80;;;28.70;96.70;;;;;;5067704;28;20069;-81
2023/07/25 02:16:45;;;;;;;30.73;8.13;;;28.60;96.70;;;;;;5067741;28;20524;-82
2023/07/25 02:19:13;;;;;;;20.98;6.43;;;28.60;96.70;;;;;;5067840;28;20052;-82
2023/07/25 02:21:41;;;;;;;21.27;7.40;;;28.50;96.70;;;;;;5066923;28;20079;-80
2023/07/25 02:24:09;;;;;;;20.20;6.28;;;28.40;96.70;;;;;;5042462;28;20049;-82
2023/07/25 02:26:38;;;;;;;23.85;7.18;;;28.40;96.70;;;;;;5067174;28;20045;-82
2023/07/25 02:29:06;;;;;;;21.15;6.50;;;28.40;96.70;;;;;;5046931;28;20052;-82
2023/07/25 02:31:35;;;;;;;21.42;7.63;;;28.30;96.70;;;;;;5064379;28;20051;-82
2023/07/25 02:34:04;;;;;;;28.02;6.82;;;28.40;96.70;;;;;;5067713;28;20060;-81
2023/07/25 02:36:32;;;;;;;20.27;5.97;;;28.30;96.70;;;;;;5069245;28;20111;-82
2023/07/25 02:39:00;;;;;;;21.38;7.05;;;28.30;96.70;;;;;;5050408;28;20056;-82
2023/07/25 02:41:28;;;;;;;20.15;6.60;;;28.20;96.70;;;;;;5068735;28;20044;-82
2023/07/25 02:43:57;;;;;;;20.00;6.75;;;28.00;96.70;;;;;;5051134;28;20040;-82
2023/07/25 02:46:25;;;;;;;19.45;6.45;;;27.70;96.70;;;;;;5034270;28;20056;-82
2023/07/25 02:48:54;;;;;;;23.30;6.30;;;27.60;96.70;;;;;;5067658;28;20052;-81
2023/07/25 02:51:23;;;;;;;26.25;7.95;;;27.60;96.70;;;;;;5059327;28;20541;-84
2023/07/25 02:53:51;;;;;;;26.15;7.38;;;27.60;96.70;;;;;;5066994;28;20561;-83
2023/07/25 02:56:20;;;;;;;24.30;7.13;;;27.40;96.70;;;;;;5067812;28;20060;-83
2023/07/25 02:58:49;;;;;;;23.52;6.95;;;27.30;96.70;;;;;;5067708;28;20041;-83
2023/07/25 03:01:17;;;;;;;19.35;6.95;;;27.30;96.70;;;;;;5069483;28;20041;-83
2023/07/25 03:03:45;;;;;;;22.40;7.00;;;27.30;96.70;;;;;;5049161;28;20892;-83
2023/07/25 03:06:15;;;;;;;19.98;6.65;;;27.30;96.70;;;;;;5069426;28;20056;-83
2023/07/25 03:08:43;;;;;;;17.65;6.60;;;27.30;96.70;;;;;;5067248;28;20517;-83
2023/07/25 03:11:11;;;;;;;18.40;5.97;;;27.40;96.70;;;;;;5047824;28;20056;-82
2023/07/25 03:13:40;;;;;;;20.10;6.53;;;27.30;96.70;;;;;;5066315;28;20064;-83
2023/07/25 03:16:08;;;;;;;21.50;7.00;;;27.00;96.70;;;;;;5051732;28;20053;-83
2023/07/25 03:18:36;;;;;;;22.85;7.85;;;26.80;96.70;;;;;;5040873;28;20044;-83
2023/07/25 03:21:04;;;;;;;17.73;6.57;;;26.60;96.70;;;;;;5067349;28;20450;-83
2023/07/25 03:23:34;;;;;;;19.83;6.15;;;26.50;96.70;;;;;;5067079;28;20442;-84
2023/07/25 03:26:03;;;;;;;23.90;7.10;;;26.50;96.70;;;;;;5058998;28;20036;-84
2023/07/25 03:28:31;;;;;;;17.90;6.32;;;26.50;96.70;;;;;;5049824;28;20613;-83
2023/07/25 03:30:59;;;;;;;14.55;5.25;;;26.60;96.70;;;;;;5051002;28;20074;-83
2023/07/25 03:33:27;;;;;;;18.65;5.70;;;26.60;96.70;;;;;;5050593;28;20045;-83
2023/07/25 03:35:56;;;;;;;16.17;5.88;;;26.60;96.70;;;;;;5068981;28;20049;-83
2023/07/25 03:38:24;;;;;;;14.10;5.25;;;26.60;96.70;;;;;;5051477;28;20102;-83
2023/07/25 03:40:53;;;;;;;16.77;5.45;;;26.70;96.70;;;;;;5067208;28;20056;-83
2023/07/25 03:43:22;;;;;;;21.00;5.72;;;26.70;96.70;;;;;;5067988;28;20501;-83
2023/07/25 03:45:50;;;;;;;15.35;5.03;;;26.70;96.70;;;;;;5059018;28;20063;-83
2023/07/25 03:48:18;;;;;;;18.65;5.90;;;26.70;96.70;;;;;;5053631;28;20041;-83
2023/07/25 03:50:46;;;;;;;17.27;5.53;;;26.70;96.70;;;;;;5068615;28;20505;-83
2023/07/25 03:53:14;;;;;;;20.63;5.93;;;26.70;96.70;;;;;;5068241;28;20048;-83
2023/07/25 03:55:42;;;;;;;14.40;5.22;;;26.90;96.70;;;;;;5065763;28;20048;-82
2023/07/25 03:58:11;;;;;;;14.55;5.00;;;26.90;96.70;;;;;;5065220;28;20359;-82
2023/07/25 04:00:41;;;;;;;18.02;5.80;;;27.00;96.70;;;;;;5065387;28;20092;-82
2023/07/25 04:03:09;;;;;;;14.68;5.32;;;26.90;96.70;;;;;;5067439;28;20565;-82
2023/07/25 04:05:42;;;;;;;19.00;5.50;;;26.90;96.70;;;;;;5049936;28;20497;-82
2023/07/25 04:08:10;;;;;;;17.38;6.47;;;26.80;96.70;;;;;;5065232;28;20040;-82
2023/07/25 04:10:38;;;;;;;18.50;5.20;;;26.50;96.70;;;;;;5081880;28;20638;-82
2023/07/25 04:13:06;;;;;;;18.55;6.03;;;26.30;96.70;;;;;;5067368;28;20060;-83
2023/07/25 04:15:36;;;;;;;17.50;5.05;;;26.30;96.70;;;;;;5068199;28;20090;-82
2023/07/25 04:18:04;;;;;;;17.13;5.28;;;26.20;96.70;;;;;;5067632;28;20131;-83
2023/07/25 04:20:32;;;;;;;18.77;6.07;;;26.10;96.70;;;;;;5066257;28;20067;-83
2023/07/25 04:23:00;;;;;;;17.13;5.28;;;26.20;96.70;;;;;;5067700;28;20036;-83
2023/07/25 04:25:28;;;;;;;14.10;5.43;;;26.30;96.70;;;;;;5065676;28;20506;-83
2023/07/25 04:27:56;;;;;;;20.55;5.93;;;26.20;96.70;;;;;;5057518;28;20052;-83
2023/07/25 04:30:24;;;;;;;21.05;6.05;;;26.30;96.70;;;;;;5049646;28;20550;-83
2023/07/25 04:32:54;;;;;;;17.85;6.63;;;26.40;96.70;;;;;;5065706;28;20048;-83
2023/07/25 04:35:22;;;;;;;21.08;5.35;;;26.40;96.70;;;;;;5066561;28;20063;-83
2023/07/25 04:37:49;;;;;;;13.77;4.90;;;26.40;96.70;;;;;;5065845;28;20048;-83
2023/07/25 04:40:17;;;;;;;14.18;5.60;;;26.30;96.70;;;;;;5064972;28;20052;-83
2023/07/25 04:42:45;;;;;;;13.32;5.32;;;26.30;96.70;;;;;;5065461;28;20056;-83
2023/07/25 04:45:13;;;;;;;18.42;5.45;;;26.20;96.70;;;;;;5066224;28;20048;-83
2023/07/25 04:47:41;;;;;;;14.98;5.35;;;26.20;96.70;;;;;;5051206;28;20105;-83
2023/07/25 04:50:11;;;;;;;15.13;5.18;;;26.10;96.70;;;;;;5077288;28;20040;-83
2023/07/25 04:52:39;;;;;;;16.33;5.80;;;26.00;96.70;;;;;;5080510;28;20048;-83
2023/07/25 04:55:07;;;;;;;16.23;4.80;;;26.00;96.70;;;;;;5065042;28;20047;-83
2023/07/25 04:57:35;;;;;;;15.45;5.43;;;26.00;96.70;;;;;;5077906;28;20043;-83
2023/07/25 05:00:05;;;;;;;17.63;4.93;;;26.20;96.70;;;;;;5061512;28;20052;-83
2023/07/25 05:02:33;;;;;;;16.40;5.18;;;26.10;96.70;;;;;;5047977;28;20041;-83
2023/07/25 05:05:01;;;;;;;12.63;4.57;;;26.10;96.70;;;;;;5052267;28;20075;-83
2023/07/25 05:07:30;;;;;;;15.10;5.25;;;26.10;96.70;;;;;;5077684;28;20040;-83
2023/07/25 05:09:58;;;;;;;14.27;4.97;;;26.10;96.70;;;;;;5082372;28;20473;-83
2023/07/25 05:12:26;;;;;;;19.27;5.80;;;26.00;96.70;;;;;;5061886;28;20052;-83
2023/07/25 05:14:54;;;;;;;18.40;6.85;;;26.10;96.70;;;;;;5067890;28;20726;-83
2023/07/25 05:17:22;;;;;;;21.40;6.47;;;26.10;96.70;;;;;;5073399;28;20462;-83
2023/07/25 05:19:50;;;;;;;19.20;6.05;;;26.10;96.70;;;;;;5067785;28;20742;-83
2023/07/25 05:22:18;;;;;;;16.80;5.82;;;26.10;96.70;;;;;;5098937;28;20064;-84
2023/07/25 05:24:47;;;;;;;17.45;5.28;;;26.00;96.70;;;;;;5071815;28;20048;-83
2023/07/25 05:27:15;;;;;;;16.60;5.18;;;26.10;96.70;;;;;;5072226;28;20048;-84
2023/07/25 05:29:43;;;;;;;11.73;5.50;;;26.10;96.70;;;;;;5060595;28;20044;-83
2023/07/25 05:32:11;;;;;;;14.07;5.18;;;26.10;96.70;;;;;;5073795;28;20051;-83
2023/07/25 05:34:39;;;;;;;15.98;6.07;;;26.20;96.70;;;;;;5066088;28;20036;-86
2023/07/25 05:37:07;;;;;;;18.73;5.80;;;26.20;96.70;;;;;;5063571;28;20069;-85
2023/07/25 05:39:35;;;;;;;17.83;5.45;;;26.20;96.70;;;;;;5045207;28;20060;-84
2023/07/25 05:42:04;;;;;;;17.23;5.25;;;26.00;96.70;;;;;;5076760;28;20493;-86
2023/07/25 05:44:32;;;;;;;17.70;5.63;;;25.90;96.70;;;;;;5068661;28;20048;-85
2023/07/25 05:47:04;;;;;;;14.45;5.88;;;25.90;96.70;;;;;;5079040;28;20052;-85
2023/07/25 05:49:33;;;;;;;16.35;5.85;;;25.90;96.70;;;;;;5076687;28;20044;-84
2023/07/25 05:52:01;;;;;;;13.60;5.45;;;25.80;96.70;;;;;;5069406;28;20327;-85
2023/07/25 05:54:29;;;;;;;17.83;5.93;;;26.00;96.70;;;;;;5081437;28;20048;-84
2023/07/25 05:56:57;;;;;;;15.43;5.13;;;25.90;96.70;;;;;;5087025;28;20044;-85
2023/07/25 05:59:27;;;;;;;22.50;6.97;;;25.80;96.70;;;;;;5062395;28;20056;-86
2023/07/25 06:01:55;;;;;;;17.48;5.93;;;25.80;96.70;;;;;;5076376;28;20206;-87
2023/07/25 06:04:22;;;;;;;17.23;5.10;;;25.60;96.70;;;;;;5086828;28;20040;-87
2023/07/25 06:06:51;;;;;;;15.40;5.50;;;25.60;96.70;;;;;;5088444;28;20044;-82
2023/07/25 06:09:18;;;;;;;17.50;5.55;;;25.70;96.70;;;;;;5084385;28;20071;-82
2023/07/25 06:11:46;;;;;;;19.58;5.72;;;25.70;96.70;;;;;;5089575;28;20040;-84
2023/07/25 06:14:15;;;;;;;13.77;5.45;;;25.70;96.70;;;;;;5073304;28;20048;-81
2023/07/25 06:16:44;;;;;;;16.25;5.15;;;25.80;96.70;;;;;;5088234;28;20040;-82
2023/07/25 06:19:13;;;;;;;25.40;7.35;;;25.90;96.70;;;;;;5073980;28;20040;-84
2023/07/25 06:21:41;;;;;;;16.15;5.68;;;25.90;96.70;;;;;;5068594;28;20048;-84
2023/07/25 06:24:09;;;;;;;18.55;6.32;;;26.10;96.70;;;;;;5070237;28;20044;-83
2023/07/25 06:26:38;;;;;;;16.92;5.82;;;26.00;96.70;;;;;;5089284;28;20048;-83
2023/07/25 06:29:06;;;;;;;14.82;6.28;;;26.20;96.70;;;;;;5068159;28;20131;-85
2023/07/25 06:31:35;;;;;;;15.63;5.55;;;26.30;96.70;;;;;;5043736;28;20115;-85
2023/07/25 06:34:07;;;;;;;16.35;5.70;;;26.40;96.70;;;;;;5077016;28;20052;-81
2023/07/25 06:36:35;;;;;;;14.57;5.53;;;26.60;96.70;;;;;;5069122;28;20097;-83
2023/07/25 06:39:03;;;;;;;17.88;5.55;;;26.60;96.70;;;;;;5055152;28;20052;-87
2023/07/25 06:41:31;;;;;;;13.02;5.20;;;26.70;96.70;;;;;;5097699;27;20111;-86
2023/07/25 06:44:02;;;;;;;16.85;5.57;;;26.60;96.70;;;;;;5061415;28;20134;-85
2023/07/25 06:46:31;;;;;;;16.25;5.85;;;26.50;96.70;;;;;;5049214;28;20075;-84
2023/07/25 06:48:59;;;;;;;14.00;4.97;;;26.50;96.70;;;;;;5068980;28;20108;-86
2023/07/25 06:51:28;;;;;;;13.35;4.55;;;26.50;96.70;;;;;;5085670;28;20142;-86
2023/07/25 06:53:57;;;;;;;16.60;5.18;;;26.50;96.70;;;;;;5068531;28;20060;-88
2023/07/25 06:56:25;;;;;;;14.05;5.28;;;26.40;96.70;;;;;;5079206;28;20052;-87
2023/07/25 06:58:53;;;;;;;16.35;5.25;;;26.40;96.70;;;;;;5080019;28;20555;-88
2023/07/25 07:01:27;;;;;;;15.52;5.35;;;26.40;96.70;;;;;;5074435;28;20049;-88
2023/07/25 07:03:56;;;;;;;18.55;5.90;;;26.50;96.70;;;;;;5077164;28;20039;-87
2023/07/25 07:06:24;;;;;;;14.43;5.88;;;26.60;96.70;;;;;;5077721;28;20040;-88
2023/07/25 07:08:53;;;;;;;541.67;479.73;;;26.60;96.70;;;;;;5084484;28;20116;-87
2023/07/25 07:11:22;;;;;;;136.07;121.68;;;26.40;96.70;;;;;;5038374;28;20048;-86
2023/07/25 07:13:50;;;;;;;49.55;42.65;;;26.30;96.70;;;;;;5049422;28;20045;-88
2023/07/25 07:16:18;;;;;;;36.80;32.92;;;26.20;96.70;;;;;;5066990;28;20056;-86
2023/07/25 07:18:47;;;;;;;26.50;22.05;;;26.10;96.70;;;;;;5077989;28;20047;-87
2023/07/25 07:21:15;;;;;;;26.80;19.73;;;26.00;96.70;;;;;;5060441;28;20072;-87
2023/07/25 07:23:43;;;;;;;25.00;19.27;;;25.90;96.70;;;;;;5064108;28;20498;-87
2023/07/25 07:26:13;;;;;;;52.80;47.15;;;25.90;96.70;;;;;;5088672;28;20043;-87
2023/07/25 07:28:41;;;;;;;37.90;28.13;;;25.90;96.70;;;;;;5044047;28;20146;-87
2023/07/25 07:31:11;;;;;;;32.10;25.38;;;25.90;96.70;;;;;;5051583;28;20072;-86
2023/07/25 07:33:40;;;;;;;32.08;23.10;;;25.90;96.70;;;;;;5069184;28;20071;-86
2023/07/25 07:36:08;;;;;;;53.25;36.55;;;26.10;96.70;;;;;;5079525;28;20070;-86
2023/07/25 07:38:36;;;;;;;39.40;21.65;;;26.10;96.70;;;;;;5061611;28;20045;-85
2023/07/25 07:41:04;;;;;;;33.25;17.38;;;26.20;96.70;;;;;;5078365;28;20036;-84
2023/07/25 07:43:38;;;;;;;38.58;22.48;;;26.20;96.70;;;;;;5052737;28;20047;-86
2023/07/25 07:46:06;;;;;;;31.92;24.25;;;26.30;96.70;;;;;;5060190;28;20060;-87
2023/07/25 07:48:35;;;;;;;24.02;14.45;;;26.40;96.70;;;;;;5088454;28;20048;-87
2023/07/25 07:51:03;;;;;;;22.02;12.77;;;26.60;96.70;;;;;;5085572;28;20044;-87
2023/07/25 07:53:32;;;;;;;18.98;8.65;;;26.70;96.70;;;;;;5073441;28;20044;-87
2023/07/25 07:56:03;;;;;;;22.85;13.60;;;26.70;96.70;;;;;;5067850;28;20406;-88
2023/07/25 07:58:32;;;;;;;15.02;7.10;;;26.70;96.70;;;;;;5053262;28;20049;-84
2023/07/25 08:01:02;;;;;;;17.40;7.35;;;26.90;96.70;;;;;;5059461;28;20079;-88
2023/07/25 08:03:30;;;;;;;16.80;6.72;;;27.10;96.70;;;;;;5080394;28;20035;-86
2023/07/25 08:05:58;;;;;;;17.20;5.55;;;27.20;96.70;;;;;;5061513;28;20047;-85
2023/07/25 08:08:27;;;;;;;13.27;5.32;;;27.20;96.70;;;;;;5066634;28;20049;-86
2023/07/25 08:10:55;;;;;;;22.92;13.93;;;27.30;96.70;;;;;;5059958;28;20567;-86
2023/07/25 08:13:23;;;;;;;21.45;10.60;;;27.50;96.70;;;;;;5078854;28;20048;-85
2023/07/25 08:15:51;;;;;;;19.80;8.88;;;27.50;96.70;;;;;;5081297;28;20040;-84
2023/07/25 08:18:21;;;;;;;17.02;7.10;;;27.50;96.70;;;;;;5063230;28;20044;-84
2023/07/25 08:20:55;;;;;;;18.80;8.30;;;27.60;96.70;;;;;;5083916;28;20044;-83
2023/07/25 08:23:24;;;;;;;19.80;7.28;;;27.70;96.70;;;;;;5051855;28;20071;-83
2023/07/25 08:25:55;;;;;;;18.95;6.95;;;27.70;96.70;;;;;;5060630;28;20309;-84
2023/07/25 08:28:23;;;;;;;17.95;7.43;;;27.60;96.70;;;;;;5081563;28;20050;-83
2023/07/25 08:30:59;;;;;;;17.65;7.30;;;27.80;96.70;;;;;;5076355;28;20071;-83
2023/07/25 08:33:32;;;;;;;20.85;6.90;;;27.90;96.70;;;;;;5082891;28;20047;-82
2023/07/25 08:36:01;;;;;;;17.85;6.70;;;27.90;96.70;;;;;;5076330;28;20076;-83
2023/07/25 08:38:29;;;;;;;18.98;6.55;;;28.00;96.70;;;;;;5083669;28;20036;-84
2023/07/25 08:41:04;;;;;;;16.70;6.53;;;28.00;96.70;;;;;;5063720;28;20056;-83
2023/07/25 08:43:37;;;;;;;19.80;6.45;;;28.10;96.70;;;;;;5067102;28;20498;-84
2023/07/25 08:46:11;;;;;;;20.92;6.85;;;28.20;96.70;;;;;;5052724;28;20086;-86
2023/07/25 08:48:42;;;;;;;16.98;6.22;;;28.10;96.70;;;;;;5034419;28;20612;-86
2023/07/25 08:51:17;;;;;;;17.50;5.85;;;28.10;96.70;;;;;;5058109;28;20127;-86
2023/07/25 08:53:53;;;;;;;15.52;6.07;;;28.10;96.70;;;;;;5049990;28;20060;-85
2023/07/25 08:56:23;;;;;;;11.63;5.13;;;28.20;96.70;;;;;;5066385;28;20052;-86
2023/07/25 08:58:52;;;;;;;16.00;5.53;;;28.20;96.70;;;;;;5065938;28;20159;-85
2023/07/25 09:01:21;;;;;;;18.73;5.38;;;28.20;96.70;;;;;;5050087;28;20052;-85
2023/07/25 09:03:53;;;;;;;11.98;5.05;;;28.30;96.70;;;;;;5046728;28;20140;-86
2023/07/25 09:06:21;;;;;;;12.38;5.50;;;28.40;96.70;;;;;;5065153;28;20158;-86
2023/07/25 09:08:50;;;;;;;15.82;5.43;;;28.50;96.70;;;;;;5065989;28;20051;-86
2023/07/25 09:11:20;;;;;;;12.73;5.28;;;28.60;96.70;;;;;;5049769;28;20063;-85
2023/07/25 09:13:49;;;;;;;13.23;4.80;;;28.70;96.70;;;;;;5067070;28;20101;-84
2023/07/25 09:16:17;;;;;;;15.88;5.55;;;28.80;96.70;;;;;;5068621;28;20037;-85
2023/07/25 09:18:45;;;;;;;13.85;5.82;;;28.70;96.70;;;;;;5065975;28;20049;-86
2023/07/25 09:21:16;;;;;;;13.30;4.60;;;28.70;96.70;;;;;;5067905;28;20494;-85
2023/07/25 09:23:51;;;;;;;14.30;6.05;;;28.80;96.70;;;;;;5066216;28;20064;-83
2023/07/25 09:26:22;;;;;;;14.02;4.97;;;28.80;96.70;;;;;;5065644;28;20039;-84
2023/07/25 09:28:52;;;;;;;14.40;5.03;;;28.80;96.70;;;;;;5045889;28;20053;-85
2023/07/25 09:31:21;;;;;;;9.68;4.70;;;28.90;96.70;;;;;;5066849;28;20036;-85
2023/07/25 09:33:51;;;;;;;11.68;5.15;;;29.10;96.70;;;;;;5059351;28;20638;-85
2023/07/25 09:36:21;;;;;;;13.32;4.90;;;29.10;96.70;;;;;;5066294;28;20051;-85
2023/07/25 09:38:52;;;;;;;14.23;5.72;;;29.30;96.70;;;;;;5049496;28;20149;-85
2023/07/25 09:41:21;;;;;;;12.88;4.97;;;29.40;96.70;;;;;;5068302;28;20052;-85
2023/07/25 09:43:50;;;;;;;14.02;5.72;;;29.50;96.70;;;;;;5070706;28;20131;-84
2023/07/25 09:46:18;;;;;;;13.15;5.95;;;29.60;96.70;;;;;;5071019;28;20056;-85
2023/07/25 09:48:52;;;;;;;12.30;5.40;;;29.70;96.70;;;;;;5070033;28;20044;-84
2023/07/25 09:51:21;;;;;;;17.50;7.47;;;29.90;96.70;;;;;;5070040;28;20059;-84
2023/07/25 09:53:51;;;;;;;12.05;5.47;;;30.20;96.70;;;;;;5062296;28;20110;-84
2023/07/25 09:56:21;;;;;;;15.80;5.63;;;30.30;96.70;;;;;;5052004;28;20064;-85
2023/07/25 09:58:51;;;;;;;17.02;5.80;;;30.30;96.70;;;;;;5060478;28;20055;-83
2023/07/25 10:01:35;;;;;;;14.10;5.22;;;30.20;96.70;;;;;;5054835;28;20044;-86
2023/07/25 10:04:05;;;;;;;17.23;5.30;;;30.30;96.70;;;;;;5069406;28;20048;-83
2023/07/25 10:06:36;;;;;;;17.38;5.70;;;30.40;96.70;;;;;;5069257;28;20052;-84
2023/07/25 10:09:06;;;;;;;15.93;5.80;;;30.40;96.70;;;;;;5061678;28;20114;-83
2023/07/25 10:11:36;;;;;;;19.52;10.52;;;30.40;96.70;;;;;;5074352;28;20052;-85
2023/07/25 10:14:04;;;;;;;18.83;6.78;;;30.50;96.70;;;;;;5052629;28;20060;-83
2023/07/25 10:16:37;;;;;;;12.13;5.45;;;30.60;96.70;;;;;;5068852;28;20048;-83
2023/07/25 10:19:06;;;;;;;15.80;5.82;;;30.60;96.70;;;;;;5068443;28;20044;-83
2023/07/25 10:21:51;;;;;;;17.92;6.47;;;30.60;96.70;;;;;;5068998;28;20052;-83
2023/07/25 10:24:20;;;;;;;12.48;5.82;;;30.70;96.70;;;;;;5069482;28;20057;-82
2023/07/25 10:26:56;;;;;;;18.42;10.70;;;30.70;96.70;;;;;;5052117;28;20062;-83
2023/07/25 10:29:38;;;;;;;16.35;6.35;;;30.90;96.70;;;;;;5070175;28;20406;-84
2023/07/25 10:32:07;;;;;;;18.80;8.27;;;31.10;96.70;;;;;;5070088;28;20049;-82
2023/07/25 10:34:46;;;;;;;11.68;6.32;;;31.20;96.70;;;;;;5068747;28;20052;-84
2023/07/25 10:37:29;;;;;;;12.60;5.53;;;31.10;96.70;;;;;;5070396;28;20051;-84
2023/07/25 10:40:08;;;;;;;12.43;6.22;;;30.90;96.70;;;;;;5069836;28;20044;-83
2023/07/25 10:42:49;;;;;;;14.40;6.28;;;30.70;96.70;;;;;;5068236;28;20048;-84
2023/07/25 10:45:53;;;;;;;12.52;6.32;;;30.50;96.70;;;;;;5068722;28;20105;-83
2023/07/25 10:48:32;;;;;;;10.15;5.40;;;30.50;96.70;;;;;;5068247;28;20053;-84
2023/07/25 10:51:06;;;;;;;11.00;4.78;;;30.80;96.70;;;;;;5044367;28;20054;-83
2023/07/25 10:53:36;;;;;;;9.95;4.90;;;31.00;96.70;;;;;;5050503;28;20102;-82
2023/07/25 10:56:09;;;;;;;7.70;3.70;;;31.20;96.70;;;;;;5051298;28;20049;-82
2023/07/25 10:58:39;;;;;;;8.82;3.85;;;31.20;96.70;;;;;;5050941;28;20055;-81
2023/07/25 11:01:28;;;;;;;7.97;3.92;;;31.30;96.70;;;;;;5059481;28;20189;-83
2023/07/25 11:04:18;;;;;;;12.02;3.75;;;31.20;96.70;;;;;;5067458;28;20048;-83
2023/07/25 11:06:47;;;;;;;7.15;3.53;;;31.30;96.70;;;;;;5068724;28;20123;-81
2023/07/25 11:09:17;;;;;;;8.77;3.75;;;31.40;96.70;;;;;;5069000;28;20032;-80
2023/07/25 11:11:46;;;;;;;7.10;3.65;;;31.40;96.70;;;;;;5067855;28;20033;-82
2023/07/25 11:14:17;;;;;;;9.77;3.25;;;31.40;96.70;;;;;;5066668;28;20128;-82
2023/07/25 11:16:47;;;;;;;9.75;4.15;;;31.30;96.70;;;;;;5041900;28;20083;-81
2023/07/25 11:19:16;;;;;;;9.30;3.58;;;31.40;96.70;;;;;;5049968;28;20084;-82
2023/07/25 11:21:45;;;;;;;9.68;4.07;;;31.40;96.70;;;;;;5067159;28;20044;-82
2023/07/25 11:24:14;;;;;;;6.72;2.80;;;31.50;96.70;;;;;;5049065;28;20045;-82
2023/07/25 11:26:44;;;;;;;7.32;3.05;;;31.20;96.70;;;;;;5066745;28;20041;-83
2023/07/25 11:29:13;;;;;;;7.32;3.47;;;31.20;96.70;;;;;;5057906;28;20060;-81
2023/07/25 11:31:49;;;;;;;8.18;3.25;;;31.20;96.70;;;;;;5050679;28;20047;-83
2023/07/25 11:34:19;;;;;;;8.35;3.58;;;31.20;96.70;;;;;;5042231;28;20681;-82
2023/07/25 11:36:47;;;;;;;8.32;3.05;;;31.30;96.70;;;;;;5067706;28;20638;-83
2023/07/25 11:39:17;;;;;;;6.57;3.65;;;31.30;96.70;;;;;;5066838;28;20510;-82
2023/07/25 11:41:47;;;;;;;5.35;2.45;;;31.30;96.70;;;;;;5066099;28;20053;-80
2023/07/25 11:44:19;;;;;;;8.38;3.20;;;31.30;96.70;;;;;;5060196;28;20167;-83
2023/07/25 11:46:52;;;;;;;6.32;2.78;;;31.30;96.70;;;;;;5068027;28;20057;-83
2023/07/25 11:49:21;;;;;;;6.15;2.80;;;31.50;96.70;;;;;;5046475;28;20045;-82
2023/07/25 11:52:10;;;;;;;9.35;2.78;;;31.50;96.70;;;;;;5057837;28;20059;-82
2023/07/25 11:54:40;;;;;;;6.57;3.05;;;31.30;96.70;;;;;;5066807;28;20044;-82
2023/07/25 11:57:11;;;;;;;9.30;2.83;;;31.30;96.70;;;;;;5056558;28;20042;-80
2023/07/25 11:59:40;;;;;;;4.65;2.65;;;31.50;96.70;;;;;;5064688;28;20124;-81
2023/07/25 12:02:10;;;;;;;9.50;3.08;;;31.50;96.70;;;;;;5066687;28;20063;-81
2023/07/25 12:04:43;;;;;;;7.82;3.08;;;31.50;96.70;;;;;;5058317;28;20143;-80
2023/07/25 12:07:12;;;;;;;6.57;2.67;;;31.60;96.70;;;;;;5066703;28;20040;-81
2023/07/25 12:09:49;;;;;;;6.72;3.17;;;31.80;96.70;;;;;;5066219;28;20131;-82
2023/07/25 12:12:20;;;;;;;8.98;3.22;;;31.80;96.70;;;;;;5065443;28;20102;-81
2023/07/25 12:14:58;;;;;;;8.20;2.58;;;31.70;96.70;;;;;;5065085;28;20048;-80
2023/07/25 12:17:42;;;;;;;7.65;2.65;;;31.60;96.70;;;;;;5048803;28;20044;-80
2023/07/25 12:20:15;;;;;;;8.30;3.03;;;31.80;96.70;;;;;;5064645;28;20131;-83
2023/07/25 12:22:43;;;;;;;7.32;3.20;;;31.80;96.70;;;;;;5067962;28;20064;-87
2023/07/25 12:25:16;;;;;;;8.07;2.60;;;31.90;96.70;;;;;;5065622;28;20051;-82
2023/07/25 12:27:47;;;;;;;8.45;3.72;;;31.70;96.70;;;;;;5060791;28;21239;-83
2023/07/25 12:30:15;;;;;;;9.02;2.53;;;31.60;96.70;;;;;;5066621;28;20040;-82
2023/07/25 12:32:44;;;;;;;11.05;3.10;;;31.70;96.70;;;;;;5057446;28;20502;-84
2023/07/25 12:35:12;;;;;;;10.10;3.13;;;31.70;96.70;;;;;;5066498;28;20041;-84
2023/07/25 12:37:40;;;;;;;10.95;3.00;;;31.70;96.70;;;;;;5066023;28;20049;-84
2023/07/25 12:40:09;;;;;;;10.75;3.40;;;31.90;96.70;;;;;;5066325;28;20083;-84
2023/07/25 12:42:37;;;;;;;11.45;3.70;;;32.00;96.70;;;;;;5059949;28;20045;-85
2023/07/25 12:45:08;;;;;;;9.52;3.10;;;31.60;96.70;;;;;;5064203;28;20054;-84
2023/07/25 12:47:38;;;;;;;10.32;3.63;;;31.60;96.70;;;;;;5067089;28;20122;-85
2023/07/25 12:50:08;;;;;;;10.18;3.33;;;31.50;96.70;;;;;;5065763;28;20048;-85